KFMY/FMY METAR and TAF weather

Enter ICAO airport designator
Station Type Date Time Source
KFMY METAR 2019/04/18 09:53 UTC NOAA

KFMY 180953Z AUTO 10004KT 10SM CLR 18/17 A2997 RMK AO2 SLP152 T01780167


Station Type Date Time Source
KFMY Decoded METAR 2019/04/18 09:53 UTC NOAA

FORT MYERS PAGE FIELD, FL, United States (KFMY) 26-35N 081-52W 4M
Apr 18, 2019 - 05:53 AM EDT / 2019.04.18 0953 UTC
Wind: from the E (100 degrees) at 5 MPH (4 KT):0
Visibility: 10 mile(s):0
Sky conditions: clear
Temperature: 64.0 F (17.8 C)
Dew Point: 62.1 F (16.7 C)
Relative Humidity: 93%
Pressure (altimeter): 29.97 in. Hg (1014 hPa)
ob: KFMY 180953Z AUTO 10004KT 10SM CLR 18/17 A2997 RMK AO2 SLP152 T01780167
cycle: 10

Station Type Date Time Source
KFMY TAF 2019/04/18 06:22 UTC NOAA

TAF KFMY 180520Z 1806/1906 10005KT P6SM SKC
FM181500 15011KT P6SM FEW030 FEW250
FM181800 20012G20KT P6SM FEW050
FM190200 15009KT P6SM FEW050
FM190500 15012KT P6SM FEW025 SCT060

Example: see airport list